Time;durP1;ratioP1;P1;durP2;ratioP2;P2;SDS_P1;SDS_P2;PMS_P1;PMS_P2;Temp;Humidity;BMP_temperature;BMP_pressure;BME280_temperature;BME280_humidity;BME280_pressure;Samples;Min_cycle;Max_cycle;Signal;HPM_P1;HPM_P2
2021/09/03 00:02:11;;;;;;;8.43;6.90;;;16.20;99.90;;;;;;5088342;28;20288;-74
2021/09/03 00:04:39;;;;;;;7.43;6.63;;;16.10;99.90;;;;;;5088293;28;20254;-74
2021/09/03 00:07:05;;;;;;;7.70;6.90;;;16.00;99.90;;;;;;5088418;28;20206;-74
2021/09/03 00:09:32;;;;;;;8.03;6.97;;;15.90;99.90;;;;;;5088564;28;20252;-74
2021/09/03 00:11:59;;;;;;;11.57;8.43;;;15.80;99.90;;;;;;5088358;28;20238;-74
2021/09/03 00:14:26;;;;;;;8.77;7.87;;;15.80;99.90;;;;;;5088225;28;20254;-74
2021/09/03 00:16:52;;;;;;;8.07;7.07;;;15.80;99.90;;;;;;5088003;28;20657;-74
2021/09/03 00:19:20;;;;;;;7.90;7.17;;;15.80;99.90;;;;;;5088506;28;20238;-73
2021/09/03 00:21:48;;;;;;;10.27;7.30;;;15.80;99.90;;;;;;5088394;28;20206;-74
2021/09/03 00:24:14;;;;;;;10.90;6.90;;;15.80;99.90;;;;;;5088018;28;20223;-74
2021/09/03 00:26:41;;;;;;;9.13;7.20;;;15.80;99.90;;;;;;5088060;28;20260;-74
2021/09/03 00:29:07;;;;;;;8.23;7.33;;;15.90;99.90;;;;;;5088246;28;20268;-74
2021/09/03 00:31:34;;;;;;;8.53;7.30;;;15.90;99.90;;;;;;5088169;28;20207;-74
2021/09/03 00:34:01;;;;;;;7.90;7.10;;;15.80;99.90;;;;;;5088118;28;20203;-73
2021/09/03 00:36:27;;;;;;;8.10;7.07;;;15.70;99.90;;;;;;5088175;28;20292;-73
2021/09/03 00:38:55;;;;;;;9.50;7.73;;;15.70;99.90;;;;;;5105615;28;20210;-74
2021/09/03 00:41:22;;;;;;;9.00;7.70;;;15.60;99.90;;;;;;5107445;28;20623;-73
2021/09/03 00:43:48;;;;;;;8.00;7.20;;;15.70;99.90;;;;;;5093819;28;20708;-73
2021/09/03 00:46:15;;;;;;;7.00;6.27;;;15.70;99.90;;;;;;5085915;28;20238;-73
2021/09/03 00:48:42;;;;;;;9.63;7.10;;;15.70;99.90;;;;;;5102831;28;20860;-73
2021/09/03 00:51:09;;;;;;;12.33;7.60;;;15.60;99.90;;;;;;5106050;28;20604;-73
2021/09/03 00:53:36;;;;;;;6.87;6.23;;;15.60;99.90;;;;;;5105991;28;20283;-74
2021/09/03 00:56:06;;;;;;;7.40;6.60;;;15.60;99.90;;;;;;5105450;28;20233;-74
2021/09/03 00:58:32;;;;;;;8.57;7.20;;;15.60;99.90;;;;;;5106047;28;20202;-74
2021/09/03 01:00:59;;;;;;;9.73;8.07;;;15.60;99.90;;;;;;5105846;28;20213;-74
2021/09/03 01:03:26;;;;;;;13.53;8.60;;;15.60;99.90;;;;;;5105752;28;20233;-74
2021/09/03 01:05:53;;;;;;;13.00;9.13;;;15.60;99.90;;;;;;5108670;28;20205;-73
2021/09/03 01:08:19;;;;;;;11.30;8.23;;;15.60;99.90;;;;;;5109458;28;20573;-73
2021/09/03 01:10:46;;;;;;;7.57;6.83;;;15.60;99.90;;;;;;5109083;28;20696;-75
2021/09/03 01:13:14;;;;;;;10.37;7.57;;;15.60;99.90;;;;;;5109307;28;20263;-72
2021/09/03 01:15:40;;;;;;;8.17;7.27;;;15.60;99.90;;;;;;5127524;27;20294;-73
2021/09/03 01:18:07;;;;;;;9.27;8.20;;;15.60;99.90;;;;;;5123487;27;20611;-73
2021/09/03 01:20:34;;;;;;;10.00;8.83;;;15.60;99.90;;;;;;5109171;28;20624;-74
2021/09/03 01:23:02;;;;;;;10.33;8.90;;;15.50;99.90;;;;;;5109911;28;20210;-75
2021/09/03 01:25:28;;;;;;;10.70;9.23;;;15.50;99.90;;;;;;5109333;28;20214;-74
2021/09/03 01:27:55;;;;;;;10.17;8.10;;;15.40;99.90;;;;;;5108555;28;20275;-72
2021/09/03 01:30:22;;;;;;;10.63;8.90;;;15.40;99.90;;;;;;5111014;28;20206;-73
2021/09/03 01:32:49;;;;;;;11.07;8.80;;;15.50;99.90;;;;;;5110020;27;20198;-73
2021/09/03 01:35:16;;;;;;;14.63;9.77;;;15.50;99.90;;;;;;5109682;28;20764;-73
2021/09/03 01:37:43;;;;;;;13.77;8.53;;;15.60;99.90;;;;;;5109619;28;21070;-70
2021/09/03 01:40:12;;;;;;;10.87;7.70;;;15.60;99.90;;;;;;5109687;28;20660;-70
2021/09/03 01:42:39;;;;;;;9.37;7.70;;;15.60;99.90;;;;;;5109702;28;20210;-70
2021/09/03 01:45:07;;;;;;;10.97;8.83;;;15.50;99.90;;;;;;5109689;28;20229;-70
2021/09/03 01:47:34;;;;;;;10.70;8.13;;;15.50;99.90;;;;;;5110606;28;20206;-70
2021/09/03 01:50:01;;;;;;;8.23;7.17;;;15.40;99.90;;;;;;5110589;28;20222;-70
2021/09/03 01:52:27;;;;;;;9.17;7.50;;;15.30;99.90;;;;;;5111004;28;20222;-70
2021/09/03 01:54:54;;;;;;;7.90;6.80;;;15.30;99.90;;;;;;5110716;28;20291;-70
2021/09/03 01:57:23;;;;;;;8.77;7.10;;;15.30;99.90;;;;;;5110963;28;20202;-70
2021/09/03 01:59:50;;;;;;;7.97;7.17;;;15.20;99.90;;;;;;5110774;28;20694;-70
2021/09/03 02:02:16;;;;;;;8.80;7.47;;;15.20;99.90;;;;;;5110728;28;20684;-70
2021/09/03 02:04:43;;;;;;;8.50;7.70;;;15.20;99.90;;;;;;5110662;28;20257;-70
2021/09/03 02:07:10;;;;;;;8.80;7.90;;;15.20;99.90;;;;;;5110873;28;20234;-70
2021/09/03 02:09:36;;;;;;;7.77;6.97;;;15.20;99.90;;;;;;5110565;28;20203;-70
2021/09/03 02:12:03;;;;;;;8.43;7.57;;;15.20;99.90;;;;;;5110506;28;20202;-70
2021/09/03 02:14:31;;;;;;;8.07;7.20;;;15.30;99.90;;;;;;5110796;28;20249;-70
2021/09/03 02:16:58;;;;;;;8.20;6.93;;;15.30;99.90;;;;;;5110382;28;20195;-70
2021/09/03 02:19:24;;;;;;;7.63;6.87;;;15.30;99.90;;;;;;5110151;28;20657;-70
2021/09/03 02:21:51;;;;;;;8.80;7.80;;;15.20;99.90;;;;;;5110257;28;20254;-71
2021/09/03 02:24:18;;;;;;;8.20;7.00;;;15.20;99.90;;;;;;5110243;28;20231;-71
2021/09/03 02:26:44;;;;;;;7.67;6.97;;;15.20;99.90;;;;;;5110218;28;20275;-72
2021/09/03 02:29:11;;;;;;;7.97;7.17;;;15.20;99.90;;;;;;5110370;28;20234;-71
2021/09/03 02:31:39;;;;;;;7.93;7.13;;;15.30;99.90;;;;;;5110112;28;20210;-72
2021/09/03 02:34:05;;;;;;;8.80;7.30;;;15.30;99.90;;;;;;5110174;28;20214;-71
2021/09/03 02:36:32;;;;;;;8.03;7.20;;;15.20;99.90;;;;;;5110282;28;20259;-71
2021/09/03 02:38:59;;;;;;;7.93;6.73;;;15.20;99.90;;;;;;5109658;28;20679;-72
2021/09/03 02:41:25;;;;;;;8.93;6.60;;;15.10;99.90;;;;;;5109898;28;20663;-72
2021/09/03 02:43:52;;;;;;;8.83;6.30;;;15.10;99.90;;;;;;5109890;28;20318;-71
2021/09/03 02:46:19;;;;;;;11.37;7.30;;;15.10;99.90;;;;;;5109803;28;20201;-71
2021/09/03 02:48:46;;;;;;;7.37;6.77;;;15.10;99.90;;;;;;5109387;28;20708;-71
2021/09/03 02:51:13;;;;;;;8.90;7.67;;;15.10;99.90;;;;;;5109677;28;20214;-71
2021/09/03 02:53:40;;;;;;;10.10;7.10;;;15.10;99.90;;;;;;5109606;28;20206;-71
2021/09/03 02:56:06;;;;;;;11.20;8.03;;;15.10;99.90;;;;;;5109332;28;20238;-72
2021/09/03 02:58:33;;;;;;;9.90;8.90;;;15.10;99.90;;;;;;5109793;28;20251;-71
2021/09/03 03:00:59;;;;;;;9.03;8.00;;;15.10;99.90;;;;;;5109699;28;20206;-71
2021/09/03 03:03:26;;;;;;;9.47;8.57;;;15.10;99.90;;;;;;5109236;28;20202;-72
2021/09/03 03:05:54;;;;;;;9.67;8.13;;;15.10;99.90;;;;;;5109470;28;20202;-72
2021/09/03 03:08:21;;;;;;;9.10;8.20;;;15.00;99.90;;;;;;5109543;28;20198;-71
2021/09/03 03:10:47;;;;;;;10.23;8.57;;;15.00;99.90;;;;;;5109422;28;20206;-71
2021/09/03 03:13:21;;;;;;;11.10;8.57;;;15.00;99.90;;;;;;5109684;28;20202;-71
2021/09/03 03:15:49;;;;;;;12.87;9.03;;;15.00;99.90;;;;;;5109542;28;20196;-71
2021/09/03 03:18:16;;;;;;;10.17;9.17;;;15.00;99.90;;;;;;5109450;28;20256;-71
2021/09/03 03:20:44;;;;;;;11.17;9.90;;;15.00;99.90;;;;;;5109269;28;20206;-71
2021/09/03 03:23:12;;;;;;;11.90;10.57;;;14.80;99.90;;;;;;5109244;28;20254;-71
2021/09/03 03:25:41;;;;;;;11.80;9.87;;;14.50;99.90;;;;;;5109051;28;20229;-71
2021/09/03 03:28:08;;;;;;;10.67;9.57;;;14.50;99.90;;;;;;5090202;28;20311;-71
2021/09/03 03:30:35;;;;;;;11.90;10.00;;;14.60;99.90;;;;;;5088745;28;20210;-71
2021/09/03 03:33:02;;;;;;;10.13;8.63;;;14.50;99.90;;;;;;5088659;28;20207;-71
2021/09/03 03:35:29;;;;;;;19.50;13.80;;;14.60;99.90;;;;;;5088732;28;20268;-72
2021/09/03 03:37:57;;;;;;;11.43;10.20;;;14.60;99.90;;;;;;5088427;28;20203;-71
2021/09/03 03:40:25;;;;;;;15.03;10.97;;;14.50;99.90;;;;;;5088480;28;20203;-71
2021/09/03 03:42:51;;;;;;;12.63;9.83;;;14.60;99.90;;;;;;5088614;28;20238;-72
2021/09/03 03:45:18;;;;;;;11.17;9.70;;;14.60;99.90;;;;;;5088165;28;20752;-71
2021/09/03 03:47:44;;;;;;;11.70;9.20;;;14.70;99.90;;;;;;5088493;28;20228;-72
2021/09/03 03:50:12;;;;;;;10.30;9.20;;;14.70;99.90;;;;;;5088341;28;20563;-71
2021/09/03 03:52:39;;;;;;;13.43;9.80;;;14.70;99.90;;;;;;5088638;28;20258;-72
2021/09/03 03:55:06;;;;;;;12.67;9.60;;;14.50;99.90;;;;;;5088217;28;20303;-72
2021/09/03 03:57:34;;;;;;;12.17;8.33;;;14.60;99.90;;;;;;5088484;28;20799;-71
2021/09/03 04:00:01;;;;;;;10.70;8.67;;;14.60;99.90;;;;;;5088445;28;20202;-71
2021/09/03 04:02:28;;;;;;;12.13;9.23;;;14.60;99.90;;;;;;5088375;28;20693;-71
2021/09/03 04:04:55;;;;;;;10.83;8.83;;;14.60;99.90;;;;;;5088304;28;20280;-72
2021/09/03 04:07:21;;;;;;;13.60;9.33;;;14.70;99.90;;;;;;5088128;28;20871;-72
2021/09/03 04:09:48;;;;;;;11.43;9.03;;;14.70;99.90;;;;;;5088276;28;20219;-71
2021/09/03 04:12:15;;;;;;;10.10;9.10;;;14.70;99.90;;;;;;5088344;28;20206;-71
2021/09/03 04:14:43;;;;;;;10.30;9.03;;;14.60;99.90;;;;;;5088275;28;20576;-72
2021/09/03 04:17:09;;;;;;;9.07;8.17;;;14.60;99.90;;;;;;5088509;28;20252;-71
2021/09/03 04:19:36;;;;;;;9.40;8.23;;;14.60;99.90;;;;;;5088328;28;20234;-72
2021/09/03 04:22:03;;;;;;;9.87;8.27;;;14.60;99.90;;;;;;5088363;28;20255;-71
2021/09/03 04:24:30;;;;;;;9.37;8.37;;;14.60;99.90;;;;;;5088505;28;20626;-71
2021/09/03 04:26:59;;;;;;;9.63;8.63;;;14.60;99.90;;;;;;5088225;28;20258;-71
2021/09/03 04:29:25;;;;;;;9.60;8.70;;;14.60;99.90;;;;;;5088402;28;20209;-71
2021/09/03 04:31:53;;;;;;;10.23;9.33;;;14.60;99.90;;;;;;5088418;28;20249;-71
2021/09/03 04:34:20;;;;;;;10.00;8.83;;;14.60;99.90;;;;;;5088062;28;20264;-71
2021/09/03 04:36:47;;;;;;;13.83;9.40;;;14.60;99.90;;;;;;5088106;28;20203;-71
2021/09/03 04:39:13;;;;;;;10.47;9.47;;;14.60;99.90;;;;;;5088456;28;20681;-72
2021/09/03 04:41:40;;;;;;;9.87;8.97;;;14.60;99.90;;;;;;5092000;28;20550;-71
2021/09/03 04:44:06;;;;;;;10.57;9.57;;;14.60;99.90;;;;;;5091938;28;20264;-71
2021/09/03 04:46:33;;;;;;;8.33;7.63;;;14.60;99.90;;;;;;5091629;28;20615;-72
2021/09/03 04:49:01;;;;;;;25.00;10.60;;;14.60;99.90;;;;;;5091298;28;20708;-71
2021/09/03 04:51:27;;;;;;;10.17;8.80;;;14.50;99.90;;;;;;5091808;28;20276;-71
2021/09/03 04:53:54;;;;;;;31.90;8.80;;;14.50;99.90;;;;;;5091309;28;20646;-71
2021/09/03 04:56:21;;;;;;;11.80;8.70;;;14.40;99.90;;;;;;5091902;28;20276;-71
2021/09/03 04:58:47;;;;;;;23.67;8.33;;;14.30;99.90;;;;;;5091552;28;20238;-71
2021/09/03 05:01:14;;;;;;;9.80;8.30;;;14.10;99.90;;;;;;5091788;28;20287;-71
2021/09/03 05:03:40;;;;;;;11.20;7.60;;;14.10;99.90;;;;;;5091811;28;20202;-71
2021/09/03 05:06:09;;;;;;;9.77;7.63;;;14.00;99.90;;;;;;5091514;28;20262;-71
2021/09/03 05:08:36;;;;;;;14.93;6.97;;;13.90;99.90;;;;;;5091479;28;20210;-71
2021/09/03 05:11:02;;;;;;;7.80;6.50;;;13.60;99.90;;;;;;5091519;28;20230;-71
2021/09/03 05:13:29;;;;;;;9.30;7.67;;;13.40;99.90;;;;;;5091161;28;20695;-71
2021/09/03 05:15:56;;;;;;;9.00;7.17;;;13.40;99.90;;;;;;5091163;28;20210;-71
2021/09/03 05:18:22;;;;;;;7.40;6.73;;;13.40;99.90;;;;;;5091396;28;20244;-71
2021/09/03 05:20:49;;;;;;;6.97;6.37;;;13.50;99.90;;;;;;5091214;28;20610;-71
2021/09/03 05:23:17;;;;;;;7.73;7.07;;;13.60;99.90;;;;;;5091407;28;20238;-71
2021/09/03 05:25:44;;;;;;;10.33;8.10;;;13.70;99.90;;;;;;5090938;28;20728;-72
2021/09/03 05:28:10;;;;;;;8.13;7.33;;;13.50;99.90;;;;;;5091043;28;20235;-71
2021/09/03 05:30:37;;;;;;;9.27;8.03;;;13.30;99.90;;;;;;5091133;28;20206;-71
2021/09/03 05:33:04;;;;;;;8.43;7.63;;;13.30;99.90;;;;;;5090884;28;20264;-71
2021/09/03 05:35:31;;;;;;;10.30;8.27;;;13.30;99.90;;;;;;5091065;28;20203;-71
2021/09/03 05:38:00;;;;;;;8.47;7.67;;;13.20;99.90;;;;;;5090515;28;20256;-71
2021/09/03 05:40:27;;;;;;;8.27;7.47;;;13.30;99.90;;;;;;5090647;28;20256;-71
2021/09/03 05:42:54;;;;;;;8.53;7.73;;;13.40;99.90;;;;;;5090881;28;20203;-72
2021/09/03 05:45:21;;;;;;;9.57;8.07;;;13.50;99.90;;;;;;5090751;28;20249;-71
2021/09/03 05:47:48;;;;;;;9.07;8.17;;;13.70;99.90;;;;;;5090698;28;20210;-71
2021/09/03 05:50:16;;;;;;;10.13;7.80;;;13.80;99.90;;;;;;5090480;28;20214;-71
2021/09/03 05:52:43;;;;;;;9.17;8.27;;;13.80;99.90;;;;;;5090659;28;20258;-71
2021/09/03 05:55:11;;;;;;;8.57;7.77;;;13.80;99.90;;;;;;5090511;28;20620;-71
2021/09/03 05:57:39;;;;;;;11.03;8.60;;;14.00;99.90;;;;;;5090634;28;20211;-71
2021/09/03 06:00:07;;;;;;;8.77;7.87;;;14.00;99.90;;;;;;5090325;28;20242;-71
2021/09/03 06:02:34;;;;;;;10.00;9.00;;;14.20;99.90;;;;;;5090419;28;20304;-71
2021/09/03 06:05:00;;;;;;;10.83;9.77;;;13.90;99.90;;;;;;5090205;28;20288;-71
2021/09/03 06:07:27;;;;;;;11.30;10.30;;;14.00;99.90;;;;;;5090688;28;20238;-71
2021/09/03 06:09:54;;;;;;;11.10;10.00;;;13.70;99.90;;;;;;5089966;28;20207;-71
2021/09/03 06:12:20;;;;;;;11.33;10.13;;;13.70;99.90;;;;;;5090251;28;20256;-71
2021/09/03 06:14:48;;;;;;;11.10;10.00;;;13.70;99.90;;;;;;5090081;28;20237;-71
2021/09/03 06:17:18;;;;;;;14.53;11.13;;;13.70;99.90;;;;;;5090406;28;20263;-71
2021/09/03 06:19:45;;;;;;;11.87;10.67;;;13.70;99.90;;;;;;5089783;28;20657;-71
2021/09/03 06:22:11;;;;;;;11.83;10.60;;;13.80;99.90;;;;;;5090099;28;20229;-71
2021/09/03 06:24:38;;;;;;;12.90;11.50;;;13.90;99.90;;;;;;5089791;28;20662;-71
2021/09/03 06:27:08;;;;;;;12.63;10.50;;;13.80;99.90;;;;;;5089788;28;20486;-71
2021/09/03 06:29:38;;;;;;;13.17;10.87;;;13.90;99.90;;;;;;5089905;28;20206;-71
2021/09/03 06:32:08;;;;;;;12.87;11.40;;;14.00;99.90;;;;;;5090006;28;20218;-71
2021/09/03 06:34:36;;;;;;;15.30;12.10;;;14.10;99.90;;;;;;5089824;28;20210;-72
2021/09/03 06:37:03;;;;;;;15.00;11.80;;;14.20;99.90;;;;;;5089748;28;20210;-71
2021/09/03 06:39:29;;;;;;;17.60;12.53;;;14.30;99.90;;;;;;5089831;28;20233;-71
2021/09/03 06:41:56;;;;;;;14.50;12.27;;;14.30;99.90;;;;;;5089663;28;20259;-71
2021/09/03 06:44:23;;;;;;;14.07;12.60;;;14.30;99.90;;;;;;5089793;28;20264;-71
2021/09/03 06:46:49;;;;;;;18.90;13.23;;;14.40;99.90;;;;;;5089469;28;20681;-71
2021/09/03 06:49:17;;;;;;;14.63;12.57;;;14.40;99.90;;;;;;5089475;28;20222;-71
2021/09/03 06:51:44;;;;;;;17.97;13.20;;;14.50;99.90;;;;;;5089489;28;20227;-71
2021/09/03 06:54:11;;;;;;;20.33;14.23;;;14.60;99.90;;;;;;5089302;28;20646;-71
2021/09/03 06:56:37;;;;;;;19.27;14.67;;;14.60;99.90;;;;;;5089473;28;20260;-71
2021/09/03 06:59:04;;;;;;;17.30;13.67;;;14.60;99.90;;;;;;5089497;28;20252;-71
2021/09/03 07:01:31;;;;;;;20.23;15.30;;;14.60;99.90;;;;;;5089012;28;20225;-71
2021/09/03 07:03:58;;;;;;;22.37;15.10;;;14.60;99.90;;;;;;5088872;28;20226;-71
2021/09/03 07:06:26;;;;;;;16.60;14.33;;;14.70;99.90;;;;;;5088571;28;20283;-71
2021/09/03 07:08:53;;;;;;;20.77;15.13;;;14.70;99.90;;;;;;5088689;28;20561;-71
2021/09/03 07:11:19;;;;;;;17.93;14.67;;;14.80;99.90;;;;;;5089061;28;20203;-71
2021/09/03 07:13:46;;;;;;;25.13;16.37;;;14.90;99.90;;;;;;5089135;28;20203;-71
2021/09/03 07:16:13;;;;;;;25.87;15.90;;;14.90;99.90;;;;;;5088972;28;20207;-71
2021/09/03 07:18:39;;;;;;;20.93;16.13;;;14.90;99.90;;;;;;5088838;28;20206;-71
2021/09/03 07:21:06;;;;;;;19.30;15.30;;;15.00;99.90;;;;;;5088739;28;20256;-71
2021/09/03 07:23:36;;;;;;;19.73;15.50;;;15.10;99.90;;;;;;5088665;28;20759;-71
2021/09/03 07:26:03;;;;;;;20.63;15.47;;;15.20;99.90;;;;;;5088074;28;20598;-71
2021/09/03 07:28:30;;;;;;;22.80;15.73;;;15.30;99.90;;;;;;5088903;28;20214;-71
2021/09/03 07:30:56;;;;;;;20.23;15.43;;;15.30;99.90;;;;;;5088588;28;20207;-71
2021/09/03 07:33:23;;;;;;;22.53;15.07;;;15.40;99.90;;;;;;5088697;28;20211;-71
2021/09/03 07:35:50;;;;;;;19.20;15.73;;;15.40;99.90;;;;;;5088635;28;20207;-71
2021/09/03 07:38:16;;;;;;;19.33;15.10;;;15.30;99.90;;;;;;5088656;28;20260;-71
2021/09/03 07:40:45;;;;;;;20.80;15.07;;;15.40;99.90;;;;;;5088562;28;20206;-71
2021/09/03 07:43:13;;;;;;;19.53;15.27;;;15.40;99.90;;;;;;5088463;28;20256;-71
2021/09/03 07:45:40;;;;;;;21.10;16.27;;;15.50;99.90;;;;;;5088398;28;20235;-71
2021/09/03 07:48:08;;;;;;;19.93;15.37;;;15.60;99.90;;;;;;5087823;28;20234;-71
2021/09/03 07:50:35;;;;;;;21.93;15.23;;;15.60;99.90;;;;;;5088095;28;20259;-71
2021/09/03 07:53:03;;;;;;;21.63;15.20;;;15.70;99.90;;;;;;5088265;28;20203;-71
2021/09/03 07:55:30;;;;;;;20.33;15.33;;;15.80;99.90;;;;;;5087908;28;20653;-71
2021/09/03 07:57:58;;;;;;;19.80;14.80;;;15.90;99.90;;;;;;5087906;28;20738;-71
2021/09/03 08:00:25;;;;;;;19.43;14.80;;;15.90;99.90;;;;;;5088466;28;20211;-72
2021/09/03 08:02:51;;;;;;;19.27;15.30;;;16.00;99.90;;;;;;5088037;28;20199;-72
2021/09/03 08:05:18;;;;;;;19.17;13.80;;;16.10;99.90;;;;;;5088373;28;20638;-72
2021/09/03 08:07:45;;;;;;;17.07;12.83;;;16.10;99.90;;;;;;5088052;28;20287;-72
2021/09/03 08:10:13;;;;;;;19.93;13.30;;;16.20;99.90;;;;;;5088109;28;20256;-72
2021/09/03 08:12:40;;;;;;;20.57;13.90;;;16.30;99.90;;;;;;5088260;28;20246;-72
2021/09/03 08:15:10;;;;;;;16.47;13.83;;;16.40;99.90;;;;;;5092283;28;20210;-71
2021/09/03 08:17:37;;;;;;;16.87;13.07;;;16.50;99.90;;;;;;5092357;28;20190;-72
2021/09/03 08:20:05;;;;;;;18.27;13.70;;;16.50;99.90;;;;;;5092259;28;20238;-71
2021/09/03 08:22:32;;;;;;;16.83;13.50;;;16.60;99.90;;;;;;5092282;28;20210;-71
2021/09/03 08:24:59;;;;;;;17.53;13.47;;;16.60;99.90;;;;;;5091973;28;20312;-72
2021/09/03 08:27:26;;;;;;;15.00;12.33;;;16.70;99.90;;;;;;5091822;28;20766;-71
2021/09/03 08:29:53;;;;;;;18.63;13.80;;;16.80;99.90;;;;;;5092119;28;20218;-71
2021/09/03 08:32:21;;;;;;;14.43;12.13;;;16.90;99.90;;;;;;5092270;28;20246;-71
2021/09/03 08:34:48;;;;;;;15.17;12.63;;;16.90;99.90;;;;;;5091756;28;20730;-71
2021/09/03 08:37:15;;;;;;;16.70;12.47;;;17.10;99.90;;;;;;5091847;28;20730;-71
2021/09/03 08:39:41;;;;;;;18.37;13.60;;;17.20;99.90;;;;;;5092218;28;20215;-71
2021/09/03 08:42:09;;;;;;;19.13;12.50;;;17.20;99.90;;;;;;5091900;28;20207;-71
2021/09/03 08:44:36;;;;;;;18.90;12.73;;;17.30;99.90;;;;;;5092090;28;20209;-71
2021/09/03 08:47:02;;;;;;;18.43;12.33;;;17.40;99.90;;;;;;5091411;28;20279;-71
2021/09/03 08:49:30;;;;;;;15.33;11.40;;;17.50;99.90;;;;;;5091197;28;20258;-71
2021/09/03 08:51:58;;;;;;;16.00;11.23;;;17.60;99.90;;;;;;5091762;28;20304;-71
2021/09/03 08:54:25;;;;;;;14.43;10.93;;;17.70;99.90;;;;;;5091622;28;20522;-72
2021/09/03 08:56:51;;;;;;;14.60;11.07;;;17.90;99.90;;;;;;5091668;28;20314;-72
2021/09/03 08:59:18;;;;;;;15.77;11.30;;;18.00;99.90;;;;;;5091655;28;20203;-71
2021/09/03 09:02:05;;;;;;;18.37;11.67;;;18.00;99.90;;;;;;5091345;28;20203;-71
2021/09/03 09:04:37;;;;;;;15.87;11.40;;;18.00;99.90;;;;;;5091129;28;20680;-72
2021/09/03 09:07:05;;;;;;;14.53;11.17;;;18.10;99.90;;;;;;5091160;28;20498;-72
2021/09/03 09:09:32;;;;;;;14.17;11.03;;;18.20;99.90;;;;;;5091865;28;20210;-72
2021/09/03 09:12:02;;;;;;;18.00;12.30;;;18.20;99.90;;;;;;5091520;28;20210;-72
2021/09/03 09:14:29;;;;;;;15.47;11.40;;;18.30;99.90;;;;;;5091464;28;20199;-72
2021/09/03 09:17:02;;;;;;;17.37;11.47;;;18.30;99.90;;;;;;5091311;28;20203;-72
2021/09/03 09:19:29;;;;;;;15.63;11.53;;;18.30;99.90;;;;;;5091483;28;20198;-72
2021/09/03 09:22:01;;;;;;;13.00;11.03;;;18.30;99.90;;;;;;5091212;28;20199;-72
2021/09/03 09:24:28;;;;;;;14.90;11.43;;;18.40;99.90;;;;;;5091140;28;20232;-72
2021/09/03 09:26:57;;;;;;;17.90;12.33;;;18.40;99.90;;;;;;5090532;28;20234;-72
2021/09/03 09:29:25;;;;;;;13.23;11.63;;;18.60;99.90;;;;;;5091193;28;20218;-72
2021/09/03 09:31:54;;;;;;;14.17;10.10;;;18.70;99.90;;;;;;5091097;28;20203;-72
2021/09/03 09:34:22;;;;;;;13.73;10.17;;;18.80;99.90;;;;;;5090553;28;20535;-72
2021/09/03 09:36:51;;;;;;;14.27;10.10;;;19.00;99.90;;;;;;5090920;28;20249;-72
2021/09/03 09:39:21;;;;;;;14.33;9.97;;;19.10;99.90;;;;;;5090793;28;20261;-72
2021/09/03 09:41:59;;;;;;;14.60;11.00;;;19.20;99.90;;;;;;5091205;28;20260;-72
2021/09/03 09:44:29;;;;;;;12.80;10.47;;;19.20;99.90;;;;;;5090918;28;20190;-72
2021/09/03 09:47:06;;;;;;;11.33;9.37;;;19.30;99.90;;;;;;5090837;28;20284;-72
2021/09/03 09:49:32;;;;;;;18.07;9.53;;;19.40;99.90;;;;;;5090545;28;20234;-72
2021/09/03 09:51:59;;;;;;;12.37;9.60;;;19.50;99.90;;;;;;5090434;28;20231;-72
2021/09/03 09:54:27;;;;;;;13.20;8.90;;;19.60;99.90;;;;;;5089968;28;20765;-72
2021/09/03 09:56:56;;;;;;;9.83;8.70;;;19.70;99.90;;;;;;5090620;28;20210;-72
2021/09/03 09:59:24;;;;;;;12.40;9.57;;;19.70;99.90;;;;;;5090527;28;20205;-72
2021/09/03 10:01:52;;;;;;;12.50;10.27;;;19.80;99.90;;;;;;5090131;28;20661;-72
2021/09/03 10:04:21;;;;;;;10.63;8.47;;;19.80;99.90;;;;;;5090223;28;20248;-72
2021/09/03 10:06:49;;;;;;;13.63;8.63;;;19.90;99.90;;;;;;5090329;28;20684;-72
2021/09/03 10:09:17;;;;;;;10.87;8.93;;;20.00;99.90;;;;;;5090301;28;20268;-72
2021/09/03 10:11:47;;;;;;;11.43;9.23;;;20.00;99.90;;;;;;5090341;28;20211;-72
2021/09/03 10:14:17;;;;;;;13.73;9.13;;;20.20;99.90;;;;;;5089851;28;20585;-72
2021/09/03 10:16:44;;;;;;;11.20;8.90;;;20.10;99.90;;;;;;5090180;28;20216;-72
2021/09/03 10:19:11;;;;;;;12.20;8.70;;;20.10;99.90;;;;;;5090068;28;20235;-72
2021/09/03 10:21:39;;;;;;;11.50;8.63;;;20.20;99.90;;;;;;5090153;28;20202;-72
2021/09/03 10:24:14;;;;;;;10.03;8.67;;;20.20;99.90;;;;;;5089960;28;20199;-72
2021/09/03 10:26:43;;;;;;;13.87;9.80;;;20.40;99.90;;;;;;5089573;28;20681;-72
2021/09/03 10:29:17;;;;;;;12.63;9.17;;;20.50;99.90;;;;;;5089950;28;20203;-72
2021/09/03 10:32:21;;;;;;;11.37;9.70;;;20.50;99.90;;;;;;5089582;28;20752;-72
2021/09/03 10:35:05;;;;;;;12.57;9.20;;;20.50;99.90;;;;;;5089620;28;20205;-72
2021/09/03 10:37:37;;;;;;;10.47;8.80;;;20.50;99.90;;;;;;5085311;28;20218;-72
2021/09/03 10:40:07;;;;;;;10.60;9.20;;;20.50;99.90;;;;;;5089661;28;20191;-72
2021/09/03 10:42:47;;;;;;;12.83;8.77;;;20.60;99.90;;;;;;5089764;28;20236;-72
2021/09/03 10:45:20;;;;;;;9.70;8.70;;;20.70;99.90;;;;;;5089561;28;20195;-72
2021/09/03 10:47:49;;;;;;;10.93;8.20;;;20.70;99.90;;;;;;5089366;28;20234;-72
2021/09/03 10:50:21;;;;;;;10.83;8.53;;;20.90;99.90;;;;;;5089270;28;20578;-72
2021/09/03 10:53:34;;;;;;;9.00;7.87;;;21.00;99.90;;;;;;5089659;28;20294;-72
2021/09/03 10:56:06;;;;;;;11.17;9.47;;;21.20;99.90;;;;;;5088937;28;20263;-73
2021/09/03 10:58:38;;;;;;;10.83;7.67;;;21.30;99.90;;;;;;5089493;28;20203;-73
2021/09/03 11:01:36;;;;;;;9.57;7.33;;;21.30;99.90;;;;;;5089137;28;20260;-72
2021/09/03 11:04:10;;;;;;;8.77;6.90;;;21.40;99.90;;;;;;5088893;28;20630;-72
2021/09/03 11:06:39;;;;;;;8.63;7.70;;;21.50;99.90;;;;;;5089288;28;20218;-72
2021/09/03 11:09:20;;;;;;;8.90;7.93;;;21.60;99.90;;;;;;5089224;28;20561;-72
2021/09/03 11:11:48;;;;;;;9.40;8.20;;;21.60;99.90;;;;;;5089212;28;20302;-72
2021/09/03 11:14:17;;;;;;;12.70;7.70;;;21.70;99.90;;;;;;5089066;28;20207;-72
2021/09/03 11:16:46;;;;;;;12.50;7.47;;;21.80;99.90;;;;;;5089068;28;20279;-72
2021/09/03 11:19:15;;;;;;;12.43;7.27;;;21.90;99.90;;;;;;5088826;28;20668;-72
2021/09/03 11:21:44;;;;;;;15.80;6.97;;;22.00;99.90;;;;;;5089053;28;20225;-72
2021/09/03 11:24:12;;;;;;;8.83;7.93;;;22.00;99.90;;;;;;5088597;28;20676;-72
2021/09/03 11:26:40;;;;;;;10.53;6.67;;;22.10;99.90;;;;;;5088610;28;20234;-72
2021/09/03 11:29:17;;;;;;;8.77;6.00;;;22.10;99.90;;;;;;5088886;28;20211;-72
2021/09/03 11:31:59;;;;;;;8.17;5.83;;;22.30;99.90;;;;;;5088812;28;20197;-72
2021/09/03 11:34:47;;;;;;;6.47;5.80;;;22.50;99.90;;;;;;5088366;28;20202;-72
2021/09/03 11:37:32;;;;;;;6.43;5.80;;;22.50;99.90;;;;;;5088619;28;20240;-72
2021/09/03 11:40:13;;;;;;;7.87;6.40;;;22.60;99.90;;;;;;5088553;28;20198;-72
2021/09/03 11:42:42;;;;;;;9.27;5.93;;;22.70;99.90;;;;;;5088613;28;20252;-72
2021/09/03 11:45:14;;;;;;;6.93;6.10;;;22.70;99.90;;;;;;5088505;28;20236;-73
2021/09/03 11:47:49;;;;;;;6.93;6.20;;;22.70;99.90;;;;;;5088639;28;20333;-73
2021/09/03 11:50:19;;;;;;;8.90;6.38;;;22.70;99.90;;;;;;5088312;28;20198;-72
2021/09/03 11:52:46;;;;;;;8.90;6.17;;;22.90;99.90;;;;;;5088462;28;20685;-72
2021/09/03 11:55:17;;;;;;;7.53;5.60;;;23.10;99.90;;;;;;5087980;28;20712;-73
2021/09/03 11:57:55;;;;;;;8.00;4.95;;;23.10;99.90;;;;;;5088424;28;20191;-72
2021/09/03 12:00:24;;;;;;;7.93;5.68;;;23.30;99.90;;;;;;5088619;28;20199;-73
2021/09/03 12:02:53;;;;;;;6.85;6.15;;;23.40;99.90;;;;;;5088394;28;20661;-72
2021/09/03 12:05:20;;;;;;;6.57;5.28;;;23.50;99.90;;;;;;5088350;28;20225;-73
2021/09/03 12:08:01;;;;;;;5.05;4.63;;;23.50;99.90;;;;;;5088065;28;20237;-72
2021/09/03 12:10:36;;;;;;;6.20;5.60;;;23.60;99.90;;;;;;5088448;28;20290;-72
2021/09/03 12:13:07;;;;;;;5.93;4.90;;;23.80;99.90;;;;;;5088650;28;20239;-72
2021/09/03 12:15:34;;;;;;;5.70;5.25;;;23.80;99.90;;;;;;5088331;28;20235;-72
2021/09/03 12:18:03;;;;;;;6.07;5.57;;;23.70;99.90;;;;;;5088380;28;20202;-72
2021/09/03 12:20:31;;;;;;;6.45;5.65;;;23.80;99.90;;;;;;5088115;28;20250;-72
2021/09/03 12:22:58;;;;;;;6.32;5.72;;;23.90;99.90;;;;;;5088234;28;20206;-72
2021/09/03 12:25:32;;;;;;;5.35;4.82;;;24.00;99.90;;;;;;5088129;28;20238;-72
2021/09/03 12:28:09;;;;;;;6.57;5.53;;;24.00;99.90;;;;;;5088216;28;20230;-72
2021/09/03 12:30:36;;;;;;;7.70;5.43;;;24.20;99.90;;;;;;5088370;28;20198;-73
2021/09/03 12:33:28;;;;;;;6.78;5.25;;;24.30;99.90;;;;;;5088301;28;20202;-72
2021/09/03 12:35:57;;;;;;;6.18;5.57;;;24.40;99.90;;;;;;5088122;28;20192;-72
2021/09/03 12:38:40;;;;;;;6.15;5.60;;;24.40;99.90;;;;;;5087866;28;20230;-72
2021/09/03 12:41:18;;;;;;;8.70;5.60;;;24.40;99.90;;;;;;5087888;28;20191;-72
2021/09/03 12:43:49;;;;;;;5.78;5.25;;;24.40;99.90;;;;;;5087628;28;20646;-73
2021/09/03 12:46:17;;;;;;;6.32;5.80;;;24.40;99.90;;;;;;5087922;28;20252;-73